createdAt,value
2023-05-12T00:00:35.534Z,548.00
2023-05-12T00:01:35.238Z,548.00
2023-05-12T00:02:35.364Z,550.00
2023-05-12T00:03:35.558Z,545.00
2023-05-12T00:04:35.381Z,544.00
2023-05-12T00:05:36.082Z,551.00
2023-05-12T00:06:35.420Z,552.00
2023-05-12T00:07:35.491Z,551.00
2023-05-12T00:08:35.508Z,551.00
2023-05-12T00:09:35.545Z,552.00
2023-05-12T00:10:35.634Z,553.00
2023-05-12T00:11:35.671Z,553.00
2023-05-12T00:12:35.660Z,547.00
2023-05-12T00:13:35.734Z,549.00
2023-05-12T00:14:35.765Z,546.00
2023-05-12T00:15:36.043Z,552.00
2023-05-12T00:16:35.920Z,551.00
2023-05-12T00:17:35.908Z,548.00
2023-05-12T00:18:36.553Z,549.00
2023-05-12T00:19:35.957Z,547.00
2023-05-12T00:20:36.027Z,552.00
2023-05-12T00:21:36.033Z,546.00
2023-05-12T00:22:36.113Z,549.00
2023-05-12T00:23:36.132Z,550.00
2023-05-12T00:24:36.196Z,549.00
2023-05-12T00:25:36.263Z,545.00
2023-05-12T00:26:36.272Z,547.00
2023-05-12T00:27:36.338Z,540.00
2023-05-12T00:28:36.390Z,547.00
2023-05-12T00:29:36.403Z,547.00
2023-05-12T00:30:36.459Z,546.00
2023-05-12T00:31:36.602Z,548.00
2023-05-12T00:32:36.565Z,547.00
2023-05-12T00:33:36.574Z,546.00
2023-05-12T00:34:36.616Z,544.00
2023-05-12T00:35:37.080Z,544.00
2023-05-12T00:36:36.662Z,546.00
2023-05-12T00:37:36.750Z,544.00
2023-05-12T00:38:36.782Z,545.00
2023-05-12T00:39:36.840Z,544.00
2023-05-12T00:40:37.127Z,544.00
2023-05-12T00:41:36.898Z,541.00
2023-05-12T00:42:36.994Z,545.00
2023-05-12T00:43:37.025Z,547.00
2023-05-12T00:44:37.044Z,546.00
2023-05-12T00:45:37.600Z,543.00
2023-05-12T00:46:37.205Z,541.00
2023-05-12T00:47:37.238Z,540.00
2023-05-12T00:48:37.206Z,541.00
2023-05-12T00:49:37.255Z,544.00
2023-05-12T00:50:37.312Z,540.00
2023-05-12T00:51:37.347Z,541.00
2023-05-12T00:52:37.374Z,542.00
2023-05-12T00:53:48.400Z,541.00
2023-05-12T00:54:38.391Z,542.00
2023-05-12T00:55:37.560Z,539.00
2023-05-12T00:56:37.398Z,538.00
2023-05-12T00:57:37.392Z,540.00
2023-05-12T00:58:37.392Z,539.00
2023-05-12T00:59:37.364Z,541.00
2023-05-12T01:00:37.391Z,540.00
2023-05-12T01:01:37.397Z,543.00
2023-05-12T01:02:37.486Z,544.00
2023-05-12T01:03:37.414Z,544.00
2023-05-12T01:04:37.351Z,540.00
2023-05-12T01:05:37.421Z,537.00
2023-05-12T01:06:37.347Z,540.00
2023-05-12T01:07:37.398Z,538.00
2023-05-12T01:08:37.433Z,542.00
2023-05-12T01:09:37.533Z,539.00
2023-05-12T01:10:37.553Z,546.00
2023-05-12T01:11:37.561Z,541.00
2023-05-12T01:12:37.635Z,540.00
2023-05-12T01:13:37.685Z,541.00
2023-05-12T01:14:37.711Z,537.00
2023-05-12T01:15:38.050Z,533.00
2023-05-12T01:16:37.818Z,541.00
2023-05-12T01:17:38.047Z,537.00
2023-05-12T01:18:37.926Z,544.00
2023-05-12T01:19:37.966Z,543.00
2023-05-12T01:20:38.053Z,542.00
2023-05-12T01:21:38.039Z,542.00
2023-05-12T01:22:38.123Z,541.00
2023-05-12T01:23:38.160Z,542.00
2023-05-12T01:24:38.185Z,535.00
2023-05-12T01:25:38.285Z,534.00
2023-05-12T01:26:38.543Z,535.00
2023-05-12T01:27:38.409Z,540.00
2023-05-12T01:28:38.384Z,534.00
2023-05-12T01:29:38.435Z,539.00
2023-05-12T01:30:38.518Z,533.00
2023-05-12T01:31:38.578Z,533.00
2023-05-12T01:32:38.579Z,541.00
2023-05-12T01:33:38.654Z,536.00
2023-05-12T01:34:38.703Z,535.00
2023-05-12T01:35:38.820Z,539.00
2023-05-12T01:36:38.796Z,537.00
2023-05-12T01:37:38.842Z,540.00
2023-05-12T01:38:38.871Z,542.00
2023-05-12T01:39:38.939Z,538.00
2023-05-12T01:40:38.996Z,535.00
2023-05-12T01:41:39.046Z,541.00
2023-05-12T01:42:39.112Z,534.00
2023-05-12T01:43:39.153Z,535.00
2023-05-12T01:44:40.077Z,539.00
2023-05-12T01:45:39.259Z,532.00
2023-05-12T01:46:39.382Z,536.00
2023-05-12T01:47:39.440Z,538.00
2023-05-12T01:48:39.422Z,535.00
2023-05-12T01:49:39.496Z,535.00
2023-05-12T01:50:39.586Z,535.00
2023-05-12T01:51:39.609Z,534.00
2023-05-12T01:52:39.686Z,535.00
2023-05-12T01:53:39.686Z,540.00
2023-05-12T01:54:39.752Z,537.00
2023-05-12T01:55:39.812Z,534.00
2023-05-12T01:56:39.859Z,535.00
2023-05-12T01:57:39.873Z,536.00
2023-05-12T01:58:39.993Z,536.00
2023-05-12T01:59:39.989Z,533.00
2023-05-12T02:00:40.072Z,535.00
2023-05-12T02:01:40.249Z,535.00
2023-05-12T02:02:42.134Z,535.00
2023-05-12T02:03:40.334Z,539.00
2023-05-12T02:04:40.209Z,533.00
2023-05-12T02:05:40.193Z,533.00
2023-05-12T02:06:40.201Z,536.00
2023-05-12T02:07:40.137Z,534.00
2023-05-12T02:08:40.125Z,533.00
2023-05-12T02:09:40.103Z,528.00
2023-05-12T02:10:40.135Z,533.00
2023-05-12T02:11:40.121Z,533.00
2023-05-12T02:12:40.095Z,534.00
2023-05-12T02:13:40.085Z,534.00
2023-05-12T02:14:40.134Z,531.00
2023-05-12T02:15:40.076Z,532.00
2023-05-12T02:16:40.144Z,531.00
2023-05-12T02:17:40.121Z,534.00
2023-05-12T02:18:40.229Z,534.00
2023-05-12T02:19:40.077Z,532.00
2023-05-12T02:20:40.066Z,536.00
2023-05-12T02:21:40.042Z,531.00
2023-05-12T02:22:40.046Z,534.00
2023-05-12T02:23:40.050Z,532.00
2023-05-12T02:24:40.012Z,534.00
2023-05-12T02:25:40.038Z,532.00
2023-05-12T02:26:40.121Z,537.00
2023-05-12T02:27:40.048Z,530.00
2023-05-12T02:28:40.013Z,533.00
2023-05-12T02:29:39.983Z,532.00
2023-05-12T02:30:39.971Z,531.00
2023-05-12T02:31:40.086Z,533.00
2023-05-12T02:32:40.019Z,532.00
2023-05-12T02:33:39.921Z,537.00
2023-05-12T02:34:39.967Z,532.00
2023-05-12T02:35:39.958Z,530.00
2023-05-12T02:36:39.962Z,528.00
2023-05-12T02:37:39.917Z,531.00
2023-05-12T02:38:40.038Z,535.00
2023-05-12T02:39:39.936Z,533.00
2023-05-12T02:40:39.916Z,531.00
2023-05-12T02:41:40.109Z,530.00
2023-05-12T02:42:39.900Z,533.00
2023-05-12T02:43:39.917Z,534.00
2023-05-12T02:44:39.938Z,530.00
2023-05-12T02:45:40.038Z,529.00
2023-05-12T02:46:40.098Z,535.00
2023-05-12T02:47:40.192Z,534.00
2023-05-12T02:48:40.221Z,535.00
2023-05-12T02:49:40.217Z,536.00
2023-05-12T02:50:40.270Z,536.00
2023-05-12T02:51:40.600Z,532.00
2023-05-12T02:52:40.389Z,536.00
2023-05-12T02:53:40.454Z,530.00
2023-05-12T02:54:40.530Z,529.00
2023-05-12T02:55:40.561Z,532.00
2023-05-12T02:56:40.651Z,529.00
2023-05-12T02:57:40.704Z,531.00
2023-05-12T02:58:40.753Z,533.00
2023-05-12T02:59:40.808Z,526.00
2023-05-12T03:00:40.807Z,529.00
2023-05-12T03:01:41.155Z,532.00
2023-05-12T03:02:41.018Z,528.00
2023-05-12T03:03:41.124Z,525.00
2023-05-12T03:04:41.044Z,528.00
2023-05-12T03:05:41.134Z,531.00
2023-05-12T03:06:41.617Z,529.00
2023-05-12T03:07:41.200Z,529.00
2023-05-12T03:08:41.445Z,532.00
2023-05-12T03:09:41.357Z,532.00
2023-05-12T03:10:41.383Z,527.00
2023-05-12T03:11:42.083Z,527.00
2023-05-12T03:12:41.512Z,530.00
2023-05-12T03:13:41.591Z,528.00
2023-05-12T03:14:41.631Z,536.00
2023-05-12T03:15:41.733Z,530.00
2023-05-12T03:16:42.175Z,528.00
2023-05-12T03:17:41.847Z,527.00
2023-05-12T03:18:41.904Z,525.00
2023-05-12T03:19:41.893Z,532.00
2023-05-12T03:20:41.956Z,528.00
2023-05-12T03:21:42.100Z,532.00
2023-05-12T03:22:42.054Z,534.00
2023-05-12T03:23:42.149Z,531.00
2023-05-12T03:24:42.174Z,529.00
2023-05-12T03:25:42.268Z,531.00
2023-05-12T03:26:43.076Z,529.00
2023-05-12T03:27:42.363Z,528.00
2023-05-12T03:28:42.426Z,536.00
2023-05-12T03:29:42.555Z,536.00
2023-05-12T03:30:42.529Z,529.00
2023-05-12T03:31:43.158Z,527.00
2023-05-12T03:32:42.779Z,529.00
2023-05-12T03:33:42.721Z,529.00
2023-05-12T03:34:42.798Z,527.00
2023-05-12T03:35:42.835Z,527.00
2023-05-12T03:36:42.901Z,530.00
2023-05-12T03:37:42.967Z,529.00
2023-05-12T03:38:43.028Z,535.00
2023-05-12T03:39:43.098Z,532.00
2023-05-12T03:40:43.174Z,534.00
2023-05-12T03:41:43.215Z,535.00
2023-05-12T03:42:43.243Z,531.00
2023-05-12T03:43:43.330Z,526.00
2023-05-12T03:44:43.369Z,531.00
2023-05-12T03:45:43.452Z,531.00
2023-05-12T03:46:43.696Z,529.00
2023-05-12T03:47:43.599Z,528.00
2023-05-12T03:48:43.595Z,532.00
2023-05-12T03:49:43.677Z,525.00
2023-05-12T03:50:43.764Z,530.00
2023-05-12T03:51:44.102Z,527.00
2023-05-12T03:52:43.897Z,523.00
2023-05-12T03:53:43.937Z,527.00
2023-05-12T03:54:44.026Z,527.00
2023-05-12T03:55:44.080Z,532.00
2023-05-12T03:56:44.151Z,525.00
2023-05-12T03:57:44.212Z,526.00
2023-05-12T03:58:44.261Z,523.00
2023-05-12T03:59:44.338Z,526.00
2023-05-12T04:00:44.374Z,524.00
2023-05-12T04:01:44.450Z,524.00
2023-05-12T04:02:44.577Z,524.00
2023-05-12T04:03:44.589Z,520.00
2023-05-12T04:04:44.613Z,524.00
2023-05-12T04:05:44.678Z,527.00
2023-05-12T04:06:44.713Z,526.00
2023-05-12T04:07:44.787Z,527.00
2023-05-12T04:08:44.832Z,527.00
2023-05-12T04:09:44.919Z,524.00
2023-05-12T04:10:44.962Z,528.00
2023-05-12T04:11:45.035Z,529.00
2023-05-12T04:12:45.103Z,525.00
2023-05-12T04:13:45.145Z,525.00
2023-05-12T04:14:45.206Z,527.00
2023-05-12T04:15:45.257Z,532.00
2023-05-12T04:16:45.387Z,525.00
2023-05-12T04:17:45.405Z,526.00
2023-05-12T04:18:45.503Z,526.00
2023-05-12T04:19:45.546Z,530.00
2023-05-12T04:20:45.597Z,527.00
2023-05-12T04:21:46.162Z,529.00
2023-05-12T04:22:45.712Z,534.00
2023-05-12T04:23:45.735Z,530.00
2023-05-12T04:24:45.838Z,529.00
2023-05-12T04:25:45.851Z,526.00
2023-05-12T04:26:46.174Z,529.00
2023-05-12T04:27:45.975Z,528.00
2023-05-12T04:28:46.055Z,530.00
2023-05-12T04:29:46.208Z,520.00
2023-05-12T04:30:46.171Z,525.00
2023-05-12T04:31:46.714Z,525.00
2023-05-12T04:32:46.299Z,524.00
2023-05-12T04:33:48.227Z,525.00
2023-05-12T04:34:46.403Z,520.00
2023-05-12T04:35:46.472Z,527.00
2023-05-12T04:36:46.612Z,525.00
2023-05-12T04:37:46.602Z,526.00
2023-05-12T04:38:46.635Z,523.00
2023-05-12T04:39:46.655Z,521.00
2023-05-12T04:40:46.724Z,522.00
2023-05-12T04:41:47.132Z,526.00
2023-05-12T04:42:46.836Z,529.00
2023-05-12T04:44:46.910Z,528.00
2023-05-12T04:45:46.948Z,524.00
2023-05-12T04:46:47.127Z,518.00
2023-05-12T04:47:46.981Z,522.00
2023-05-12T04:48:46.863Z,525.00
2023-05-12T04:49:46.875Z,528.00
2023-05-12T04:50:46.860Z,527.00
2023-05-12T04:51:46.875Z,525.00
2023-05-12T04:52:46.869Z,525.00
2023-05-12T04:53:46.846Z,495.00
2023-05-12T04:54:46.839Z,502.00
2023-05-12T04:55:46.840Z,505.00
2023-05-12T04:56:47.159Z,500.00
2023-05-12T04:57:46.822Z,501.00
2023-05-12T04:58:46.806Z,500.00
2023-05-12T04:59:46.824Z,515.00
2023-05-12T05:00:46.825Z,513.00
2023-05-12T05:01:47.055Z,500.00
2023-05-12T05:02:46.870Z,504.00
2023-05-12T05:03:46.874Z,511.00
2023-05-12T05:04:46.773Z,523.00
2023-05-12T05:05:46.784Z,512.00
2023-05-12T05:06:46.760Z,507.00
2023-05-12T05:07:47.147Z,508.00
2023-05-12T05:08:46.734Z,529.00
2023-05-12T05:09:46.747Z,514.00
2023-05-12T05:10:46.720Z,515.00
2023-05-12T05:11:47.132Z,511.00
2023-05-12T05:12:46.721Z,516.00
2023-05-12T05:13:46.712Z,509.00
2023-05-12T05:14:46.719Z,522.00
2023-05-12T05:15:46.722Z,528.00
2023-05-12T05:16:46.704Z,545.00
2023-05-12T05:17:46.717Z,546.00
2023-05-12T05:18:46.931Z,519.00
2023-05-12T05:19:55.954Z,513.00
2023-05-12T05:20:56.011Z,514.00
2023-05-12T05:21:47.638Z,514.00
2023-05-12T05:22:47.132Z,519.00
2023-05-12T05:23:46.675Z,529.00
2023-05-12T05:24:46.648Z,536.00
2023-05-12T05:25:46.609Z,552.00
2023-05-12T05:26:46.627Z,554.00
2023-05-12T05:27:46.616Z,559.00
2023-05-12T05:28:46.607Z,560.00
2023-05-12T05:29:46.616Z,557.00
2023-05-12T05:30:46.596Z,554.00
2023-05-12T05:31:46.694Z,553.00
2023-05-12T05:32:46.622Z,552.00
2023-05-12T05:33:46.564Z,556.00
2023-05-12T05:34:46.578Z,553.00
2023-05-12T05:35:46.598Z,555.00
2023-05-12T05:36:46.555Z,555.00
2023-05-12T05:37:46.534Z,559.00
2023-05-12T05:38:46.559Z,551.00
2023-05-12T05:39:46.536Z,558.00
2023-05-12T05:40:53.546Z,555.00
2023-05-12T05:41:47.554Z,555.00
2023-05-12T05:42:46.630Z,556.00
2023-05-12T05:43:46.529Z,557.00
2023-05-12T05:44:46.570Z,558.00
2023-05-12T05:45:46.485Z,559.00
2023-05-12T05:46:46.546Z,561.00
2023-05-12T05:47:46.699Z,565.00
2023-05-12T05:48:46.528Z,549.00
2023-05-12T05:49:46.468Z,542.00
2023-05-12T05:50:46.529Z,518.00
2023-05-12T05:51:46.556Z,523.00
2023-05-12T05:52:46.609Z,536.00
2023-05-12T05:53:46.635Z,549.00
2023-05-12T05:54:46.735Z,520.00
2023-05-12T05:55:46.770Z,529.00
2023-05-12T05:56:46.777Z,530.00
2023-05-12T05:57:47.141Z,546.00
2023-05-12T05:58:46.875Z,556.00
2023-05-12T05:59:46.921Z,553.00
2023-05-12T06:00:47.010Z,533.00
2023-05-12T06:01:47.072Z,547.00
2023-05-12T06:02:47.311Z,545.00
2023-05-12T06:03:47.227Z,524.00
2023-05-12T06:04:47.226Z,517.00
2023-05-12T06:05:47.215Z,538.00
2023-05-12T06:06:48.183Z,547.00
2023-05-12T06:07:47.289Z,558.00
2023-05-12T06:08:47.322Z,576.00
2023-05-12T06:09:47.421Z,597.00
2023-05-12T06:10:47.440Z,608.00
2023-05-12T06:11:47.485Z,612.00
2023-05-12T06:12:48.457Z,612.00
2023-05-12T06:13:47.564Z,614.00
2023-05-12T06:14:47.414Z,613.00
2023-05-12T06:15:47.452Z,616.00
2023-05-12T06:16:47.473Z,636.00
2023-05-12T06:17:47.690Z,631.00
2023-05-12T06:18:47.445Z,633.00
2023-05-12T06:19:47.420Z,635.00
2023-05-12T06:20:47.454Z,638.00
2023-05-12T06:21:47.468Z,638.00
2023-05-12T06:22:47.697Z,644.00
2023-05-12T06:23:47.633Z,640.00
2023-05-12T06:24:47.698Z,650.00
2023-05-12T06:25:47.699Z,631.00
2023-05-12T06:26:47.806Z,638.00
2023-05-12T06:27:47.872Z,644.00
2023-05-12T06:28:47.891Z,644.00
2023-05-12T06:29:48.064Z,634.00
2023-05-12T06:30:48.015Z,646.00
2023-05-12T06:31:48.067Z,643.00
2023-05-12T06:32:48.151Z,646.00
2023-05-12T06:33:48.141Z,647.00
2023-05-12T06:34:48.223Z,639.00
2023-05-12T06:35:48.257Z,646.00
2023-05-12T06:36:48.314Z,639.00
2023-05-12T06:37:48.674Z,642.00
2023-05-12T06:38:48.442Z,658.00
2023-05-12T06:39:48.435Z,651.00
2023-05-12T06:40:48.518Z,644.00
2023-05-12T06:41:48.532Z,638.00
2023-05-12T06:42:48.590Z,633.00
2023-05-12T06:43:48.654Z,630.00
2023-05-12T06:44:48.658Z,633.00
2023-05-12T06:45:48.712Z,652.00
2023-05-12T06:46:48.794Z,665.00
2023-05-12T06:47:48.805Z,653.00
2023-05-12T06:48:48.856Z,653.00
2023-05-12T06:49:48.879Z,649.00
2023-05-12T06:50:48.927Z,631.00
2023-05-12T06:51:48.980Z,633.00
2023-05-12T06:52:49.207Z,615.00
2023-05-12T06:53:49.023Z,564.00
2023-05-12T06:54:49.098Z,551.00
2023-05-12T06:55:49.141Z,539.00
2023-05-12T06:56:49.220Z,531.00
2023-05-12T06:57:49.663Z,539.00
2023-05-12T06:58:49.337Z,566.00
2023-05-12T06:59:49.382Z,582.00
2023-05-12T07:00:49.459Z,606.00
2023-05-12T07:01:49.538Z,621.00
2023-05-12T07:02:49.760Z,630.00
2023-05-12T07:03:49.700Z,632.00
2023-05-12T07:04:49.693Z,640.00
2023-05-12T07:05:49.689Z,640.00
2023-05-12T07:06:49.747Z,640.00
2023-05-12T07:07:49.810Z,645.00
2023-05-12T07:08:49.835Z,651.00
2023-05-12T07:09:49.926Z,648.00
2023-05-12T07:10:49.924Z,647.00
2023-05-12T07:11:49.965Z,650.00
2023-05-12T07:12:50.188Z,650.00
2023-05-12T07:13:50.007Z,652.00
2023-05-12T07:14:50.098Z,646.00
2023-05-12T07:15:50.683Z,653.00
2023-05-12T07:16:50.171Z,651.00
2023-05-12T07:17:50.308Z,643.00
2023-05-12T07:18:50.320Z,645.00
2023-05-12T07:19:50.296Z,657.00
2023-05-12T07:20:50.349Z,648.00
2023-05-12T07:21:50.318Z,645.00
2023-05-12T07:22:50.418Z,652.00
2023-05-12T07:23:50.427Z,651.00
2023-05-12T07:24:50.526Z,656.00
2023-05-12T07:25:50.508Z,655.00
2023-05-12T07:26:50.541Z,651.00
2023-05-12T07:27:50.564Z,653.00
2023-05-12T07:28:50.605Z,654.00
2023-05-12T07:29:50.621Z,654.00
2023-05-12T07:30:50.662Z,658.00
2023-05-12T07:31:50.687Z,659.00
2023-05-12T07:32:50.765Z,657.00
2023-05-12T07:33:50.726Z,658.00
2023-05-12T07:34:50.740Z,658.00
2023-05-12T07:35:50.782Z,662.00
2023-05-12T07:36:50.782Z,659.00
2023-05-12T07:37:51.235Z,666.00
2023-05-12T07:38:50.873Z,668.00
2023-05-12T07:39:50.876Z,663.00
2023-05-12T07:40:50.937Z,666.00
2023-05-12T07:41:50.891Z,664.00
2023-05-12T07:42:51.005Z,667.00
2023-05-12T07:43:50.971Z,667.00
2023-05-12T07:44:50.976Z,666.00
2023-05-12T07:45:50.985Z,602.00
2023-05-12T07:46:51.020Z,611.00
2023-05-12T07:47:51.067Z,597.00
2023-05-12T07:48:51.057Z,594.00
2023-05-12T07:49:51.070Z,597.00
2023-05-12T07:50:51.091Z,615.00
2023-05-12T07:51:51.115Z,631.00
2023-05-12T07:52:51.145Z,641.00
2023-05-12T07:53:51.198Z,643.00
2023-05-12T07:54:51.171Z,644.00
2023-05-12T07:55:51.181Z,639.00
2023-05-12T07:56:51.492Z,641.00
2023-05-12T07:57:51.377Z,638.00
2023-05-12T07:58:52.197Z,632.00
2023-05-12T07:59:51.350Z,633.00
2023-05-12T08:00:51.346Z,631.00
2023-05-12T08:01:51.397Z,633.00
2023-05-12T08:02:51.986Z,625.00
2023-05-12T08:03:51.660Z,625.00
2023-05-12T08:04:51.471Z,623.00
2023-05-12T08:05:51.518Z,622.00
2023-05-12T08:06:51.577Z,618.00
2023-05-12T08:07:51.662Z,621.00
2023-05-12T08:08:51.676Z,616.00
2023-05-12T08:09:51.700Z,615.00
2023-05-12T08:10:51.745Z,618.00
2023-05-12T08:11:51.997Z,612.00
2023-05-12T08:12:52.711Z,609.00
2023-05-12T08:13:51.909Z,610.00
2023-05-12T08:14:51.952Z,609.00
2023-05-12T08:15:51.981Z,599.00
2023-05-12T08:16:52.043Z,600.00
2023-05-12T08:17:52.111Z,600.00
2023-05-12T08:18:52.261Z,595.00
2023-05-12T08:19:52.193Z,593.00
2023-05-12T08:20:52.225Z,588.00
2023-05-12T08:21:52.288Z,594.00
2023-05-12T08:22:52.332Z,590.00
2023-05-12T08:23:52.721Z,601.00
2023-05-12T08:24:52.491Z,596.00
2023-05-12T08:25:52.562Z,589.00
2023-05-12T08:26:52.713Z,590.00
2023-05-12T08:27:52.667Z,586.00
2023-05-12T08:28:53.247Z,588.00
2023-05-12T08:29:52.780Z,579.00
2023-05-12T08:30:52.856Z,571.00
2023-05-12T08:31:52.875Z,580.00
2023-05-12T08:32:52.970Z,575.00
2023-05-12T08:34:09.205Z,587.00
2023-05-12T08:34:53.997Z,582.00
2023-05-12T08:35:53.009Z,580.00
2023-05-12T08:36:53.019Z,572.00
2023-05-12T08:37:52.994Z,573.00
2023-05-12T08:38:52.983Z,570.00
2023-05-12T08:39:52.998Z,573.00
2023-05-12T08:40:52.952Z,569.00
2023-05-12T08:41:52.978Z,564.00
2023-05-12T08:42:53.018Z,569.00
2023-05-12T08:43:53.077Z,574.00
2023-05-12T08:44:53.207Z,561.00
2023-05-12T08:45:53.159Z,559.00
2023-05-12T08:46:53.385Z,566.00
2023-05-12T08:47:53.335Z,558.00
2023-05-12T08:48:53.387Z,551.00
2023-05-12T08:49:53.414Z,554.00
2023-05-12T08:50:53.463Z,560.00
2023-05-12T08:51:57.662Z,550.00
2023-05-12T08:52:53.506Z,551.00
2023-05-12T08:53:53.521Z,551.00
2023-05-12T08:54:56.469Z,551.00
2023-05-12T08:57:09.056Z,555.00
2023-05-12T08:57:53.529Z,551.00
2023-05-12T08:58:53.435Z,551.00
2023-05-12T08:59:53.449Z,543.00
2023-05-12T09:00:53.762Z,554.00
2023-05-12T09:01:53.520Z,560.00
2023-05-12T09:02:54.794Z,548.00
2023-05-12T09:03:53.438Z,549.00
2023-05-12T09:04:53.568Z,530.00
2023-05-12T09:05:53.427Z,521.00
2023-05-12T09:06:55.771Z,533.00
2023-05-12T09:07:53.632Z,543.00
2023-05-12T09:08:53.708Z,542.00
2023-05-12T09:09:53.720Z,535.00
2023-05-12T09:10:53.838Z,541.00
2023-05-12T09:11:53.900Z,541.00
2023-05-12T09:12:53.917Z,529.00
2023-05-12T09:13:54.009Z,532.00
2023-05-12T09:14:54.027Z,525.00
2023-05-12T09:15:54.169Z,521.00
2023-05-12T09:16:54.153Z,539.00
2023-05-12T09:17:54.201Z,526.00
2023-05-12T09:18:54.276Z,533.00
2023-05-12T09:19:54.239Z,528.00
2023-05-12T09:20:54.298Z,534.00
2023-05-12T09:21:54.325Z,512.00
2023-05-12T09:22:54.405Z,510.00
2023-05-12T09:23:54.721Z,522.00
2023-05-12T09:24:54.476Z,517.00
2023-05-12T09:25:54.554Z,532.00
2023-05-12T09:26:54.616Z,545.00
2023-05-12T09:27:54.626Z,543.00
2023-05-12T09:28:54.703Z,529.00
2023-05-12T09:29:59.709Z,507.00
2023-05-12T09:30:55.755Z,508.00
2023-05-12T09:31:54.794Z,508.00
2023-05-12T09:32:54.784Z,506.00
2023-05-12T09:33:54.701Z,511.00
2023-05-12T09:34:54.696Z,491.00
2023-05-12T09:35:54.730Z,508.00
2023-05-12T09:36:54.686Z,521.00
2023-05-12T09:37:54.673Z,524.00
2023-05-12T09:38:54.710Z,536.00
2023-05-12T09:39:54.802Z,511.00
2023-05-12T09:40:54.800Z,522.00
2023-05-12T09:41:54.898Z,535.00
2023-05-12T09:42:54.906Z,521.00
2023-05-12T09:43:54.958Z,537.00
2023-05-12T09:44:54.990Z,529.00
2023-05-12T09:45:55.076Z,509.00
2023-05-12T09:46:55.083Z,528.00
2023-05-12T09:47:55.178Z,514.00
2023-05-12T09:48:55.279Z,513.00
2023-05-12T09:49:55.246Z,500.00
2023-05-12T09:50:55.300Z,510.00
2023-05-12T09:51:55.324Z,540.00
2023-05-12T09:52:55.388Z,577.00
2023-05-12T09:53:55.403Z,579.00
2023-05-12T09:54:55.560Z,580.00
2023-05-12T09:55:55.547Z,567.00
2023-05-12T09:56:55.589Z,602.00
2023-05-12T09:57:55.657Z,625.00
2023-05-12T09:58:55.746Z,634.00
2023-05-12T09:59:55.803Z,638.00
2023-05-12T10:01:55.870Z,619.00
2023-05-12T10:02:55.801Z,613.00
2023-05-12T10:03:56.314Z,604.00
2023-05-12T10:04:55.798Z,609.00
2023-05-12T10:05:55.865Z,595.00
2023-05-12T10:06:55.827Z,596.00
2023-05-12T10:07:55.744Z,585.00
2023-05-12T10:08:56.234Z,594.00
2023-05-12T10:09:55.757Z,601.00
2023-05-12T10:10:55.749Z,617.00
2023-05-12T10:11:55.725Z,614.00
2023-05-12T10:12:55.747Z,596.00
2023-05-12T10:13:55.764Z,606.00
2023-05-12T10:14:55.718Z,613.00
2023-05-12T10:15:55.735Z,615.00
2023-05-12T10:16:55.769Z,620.00
2023-05-12T10:17:55.730Z,609.00
2023-05-12T10:18:55.775Z,620.00
2023-05-12T10:19:55.682Z,630.00
2023-05-12T10:20:55.694Z,637.00
2023-05-12T10:21:55.653Z,635.00
2023-05-12T10:22:55.634Z,644.00
2023-05-12T10:23:55.627Z,637.00
2023-05-12T10:24:55.665Z,646.00
2023-05-12T10:25:55.630Z,633.00
2023-05-12T10:26:56.166Z,647.00
2023-05-12T10:27:55.623Z,651.00
2023-05-12T10:28:55.740Z,652.00
2023-05-12T10:29:55.610Z,660.00
2023-05-12T10:30:55.642Z,654.00
2023-05-12T10:31:55.580Z,651.00
2023-05-12T10:32:55.719Z,658.00
2023-05-12T10:33:55.764Z,651.00
2023-05-12T10:34:55.582Z,660.00
2023-05-12T10:35:55.587Z,650.00
2023-05-12T10:36:55.622Z,650.00
2023-05-12T10:37:55.573Z,650.00
2023-05-12T10:38:55.736Z,648.00
2023-05-12T10:39:55.570Z,637.00
2023-05-12T10:40:55.571Z,617.00
2023-05-12T10:41:55.527Z,633.00
2023-05-12T10:42:55.543Z,638.00
2023-05-12T10:43:55.554Z,649.00
2023-05-12T10:44:55.542Z,708.00
2023-05-12T10:45:55.561Z,755.00
2023-05-12T10:46:55.508Z,769.00
2023-05-12T10:47:55.569Z,784.00
2023-05-12T10:48:55.802Z,786.00
2023-05-12T10:49:55.525Z,800.00
2023-05-12T10:50:55.584Z,776.00
2023-05-12T10:51:55.642Z,766.00
2023-05-12T10:52:55.837Z,765.00
2023-05-12T10:53:56.220Z,765.00
2023-05-12T10:54:55.890Z,766.00
2023-05-12T10:55:56.082Z,750.00
2023-05-12T10:56:56.075Z,761.00
2023-05-12T10:57:56.407Z,723.00
2023-05-12T10:58:56.328Z,727.00
2023-05-12T10:59:56.293Z,732.00
2023-05-12T11:00:56.990Z,723.00
2023-05-12T11:01:56.779Z,734.00
2023-05-12T11:03:00.633Z,736.00
2023-05-12T11:03:57.871Z,737.00
2023-05-12T11:04:56.470Z,738.00
2023-05-12T11:05:56.407Z,733.00
2023-05-12T11:06:56.693Z,768.00
2023-05-12T11:07:57.024Z,751.00
2023-05-12T11:08:57.101Z,719.00
2023-05-12T11:09:59.153Z,715.00
2023-05-12T11:10:56.379Z,738.00
2023-05-12T11:11:56.596Z,730.00
2023-05-12T11:12:56.221Z,723.00
2023-05-12T11:13:56.277Z,726.00
2023-05-12T11:14:56.214Z,712.00
2023-05-12T11:15:56.272Z,699.00
2023-05-12T11:16:56.217Z,639.00
2023-05-12T11:17:56.212Z,688.00
2023-05-12T11:18:56.250Z,686.00
2023-05-12T11:19:56.187Z,708.00
2023-05-12T11:20:56.182Z,709.00
2023-05-12T11:21:56.142Z,714.00
2023-05-12T11:22:56.171Z,730.00
2023-05-12T11:23:56.260Z,720.00
2023-05-12T11:24:56.248Z,724.00
2023-05-12T11:25:56.274Z,716.00
2023-05-12T11:26:56.143Z,717.00
2023-05-12T11:27:56.148Z,724.00
2023-05-12T11:28:56.142Z,710.00
2023-05-12T11:29:56.292Z,718.00
2023-05-12T11:30:56.174Z,713.00
2023-05-12T11:31:56.134Z,718.00
2023-05-12T11:32:56.146Z,702.00
2023-05-12T11:34:08.294Z,692.00
2023-05-12T11:34:57.118Z,693.00
2023-05-12T11:35:56.139Z,695.00
2023-05-12T11:36:56.063Z,680.00
2023-05-12T11:37:56.121Z,637.00
2023-05-12T11:38:56.124Z,632.00
2023-05-12T11:39:56.271Z,608.00
2023-05-12T11:40:56.150Z,641.00
2023-05-12T11:42:05.486Z,614.00
2023-05-12T11:42:57.080Z,614.00
2023-05-12T11:43:56.034Z,616.00
2023-05-12T11:44:56.052Z,623.00
2023-05-12T11:45:56.079Z,648.00
2023-05-12T11:46:56.014Z,744.00
2023-05-12T11:47:56.928Z,739.00
2023-05-12T11:48:56.243Z,742.00
2023-05-12T11:49:56.331Z,750.00
2023-05-12T11:50:56.398Z,811.00
2023-05-12T11:51:56.426Z,769.00
2023-05-12T11:52:56.514Z,766.00
2023-05-12T11:53:56.568Z,809.00
2023-05-12T11:54:56.776Z,686.00
2023-05-12T11:55:56.682Z,754.00
2023-05-12T11:56:56.755Z,757.00
2023-05-12T11:57:56.823Z,780.00
2023-05-12T11:58:56.833Z,806.00
2023-05-12T11:59:56.923Z,821.00
2023-05-12T12:00:56.960Z,834.00
2023-05-12T12:01:57.064Z,738.00
2023-05-12T12:02:57.126Z,742.00
2023-05-12T12:03:57.232Z,760.00
2023-05-12T12:04:57.190Z,774.00
2023-05-12T12:05:57.281Z,800.00
2023-05-12T12:06:57.561Z,821.00
2023-05-12T12:07:57.335Z,805.00
2023-05-12T12:08:57.401Z,825.00
2023-05-12T12:09:57.465Z,822.00
2023-05-12T12:10:57.519Z,818.00
2023-05-12T12:11:57.543Z,830.00
2023-05-12T12:12:57.619Z,849.00
2023-05-12T12:13:57.708Z,867.00
2023-05-12T12:14:57.686Z,856.00
2023-05-12T12:15:57.780Z,846.00
2023-05-12T12:16:57.799Z,852.00
2023-05-12T12:17:57.905Z,855.00
2023-05-12T12:18:58.170Z,828.00
2023-05-12T12:19:57.934Z,832.00
2023-05-12T12:20:57.984Z,848.00
2023-05-12T12:21:58.031Z,845.00
2023-05-12T12:22:58.056Z,866.00
2023-05-12T12:23:58.124Z,869.00
2023-05-12T12:24:58.331Z,863.00
2023-05-12T12:25:58.230Z,858.00
2023-05-12T12:26:58.275Z,859.00
2023-05-12T12:27:58.341Z,853.00
2023-05-12T12:28:58.338Z,858.00
2023-05-12T12:29:58.868Z,863.00
2023-05-12T12:30:58.466Z,855.00
2023-05-12T12:31:58.466Z,833.00